createdAt,value
2023-04-10T00:01:59.688Z,22.00
2023-04-10T00:04:28.576Z,22.10
2023-04-10T00:06:56.602Z,23.30
2023-04-10T00:09:24.531Z,23.90
2023-04-10T00:11:52.590Z,25.20
2023-04-10T00:14:23.274Z,26.30
2023-04-10T00:16:51.327Z,23.70
2023-04-10T00:19:19.142Z,24.00
2023-04-10T00:21:47.092Z,21.80
2023-04-10T00:24:15.668Z,20.70
2023-04-10T00:26:43.573Z,19.90
2023-04-10T00:29:11.822Z,19.70
2023-04-10T00:31:39.741Z,21.00
2023-04-10T00:34:09.011Z,21.70
2023-04-10T00:36:36.873Z,19.90
2023-04-10T00:39:04.887Z,19.70
2023-04-10T00:41:32.824Z,20.50
2023-04-10T00:44:00.812Z,22.50
2023-04-10T00:46:29.430Z,23.20
2023-04-10T00:48:57.618Z,23.10
2023-04-10T00:51:26.581Z,20.80
2023-04-10T00:53:57.444Z,21.90
2023-04-10T00:56:25.603Z,22.10
2023-04-10T00:58:53.553Z,24.40
2023-04-10T01:01:21.454Z,28.70
2023-04-10T01:03:49.652Z,32.80
2023-04-10T01:06:38.639Z,30.90
2023-04-10T01:09:24.665Z,29.10
2023-04-10T01:11:58.652Z,30.90
2023-04-10T01:14:43.696Z,30.90
2023-04-10T01:17:19.357Z,99.70
2023-04-10T01:20:07.833Z,67.60
2023-04-10T01:22:41.556Z,36.60
2023-04-10T01:25:47.428Z,33.30
2023-04-10T01:28:42.675Z,30.20
2023-04-10T01:31:19.031Z,32.80
2023-04-10T01:33:51.556Z,27.90
2023-04-10T01:36:26.458Z,37.70
2023-04-10T01:38:56.765Z,33.30
2023-04-10T01:41:26.331Z,33.00
2023-04-10T01:43:55.473Z,30.10
2023-04-10T01:46:24.131Z,30.70
2023-04-10T01:48:52.363Z,26.20
2023-04-10T01:51:20.822Z,26.40
2023-04-10T01:53:48.973Z,25.90
2023-04-10T01:56:17.147Z,27.00
2023-04-10T01:58:45.086Z,26.80
2023-04-10T02:01:29.162Z,25.00
2023-04-10T02:03:59.218Z,25.20
2023-04-10T02:06:52.189Z,25.20
2023-04-10T02:09:34.125Z,25.60
2023-04-10T02:12:09.809Z,27.60
2023-04-10T02:14:41.921Z,29.30
2023-04-10T02:17:11.462Z,29.10
2023-04-10T02:19:40.437Z,29.70
2023-04-10T02:22:08.775Z,27.70
2023-04-10T02:24:36.630Z,25.30
2023-04-10T02:27:04.706Z,24.10
2023-04-10T02:29:32.590Z,26.70
2023-04-10T02:32:01.456Z,21.70
2023-04-10T02:34:29.479Z,19.90
2023-04-10T02:36:57.247Z,17.10
2023-04-10T02:39:25.234Z,13.80
2023-04-10T02:41:53.166Z,14.00
2023-04-10T02:44:21.555Z,14.60
2023-04-10T02:46:49.561Z,17.70
2023-04-10T02:49:17.417Z,17.50
2023-04-10T02:51:45.504Z,15.90
2023-04-10T02:54:13.373Z,16.80
2023-04-10T02:56:41.308Z,14.90
2023-04-10T02:59:09.238Z,16.40
2023-04-10T03:01:39.476Z,16.00
2023-04-10T03:04:08.142Z,15.10
2023-04-10T03:06:36.379Z,15.70
2023-04-10T03:09:04.448Z,16.20
2023-04-10T03:11:32.403Z,17.50
2023-04-10T03:14:00.474Z,21.00
2023-04-10T03:16:28.334Z,24.40
2023-04-10T03:18:56.976Z,24.20
2023-04-10T03:21:24.893Z,22.40
2023-04-10T03:23:52.957Z,25.60
2023-04-10T03:26:21.267Z,20.30
2023-04-10T03:28:49.078Z,20.80
2023-04-10T03:31:17.014Z,23.50
2023-04-10T03:33:45.007Z,25.40
2023-04-10T03:36:12.938Z,23.60
2023-04-10T03:38:41.267Z,23.80
2023-04-10T03:41:09.089Z,24.90
2023-04-10T03:43:36.964Z,22.90
2023-04-10T03:46:05.042Z,19.80
2023-04-10T03:48:33.517Z,18.80
2023-04-10T03:51:02.425Z,21.90
2023-04-10T03:53:30.463Z,31.10
2023-04-10T03:55:58.576Z,31.30
2023-04-10T03:58:26.495Z,30.70
2023-04-10T04:00:54.463Z,30.90
2023-04-10T04:03:22.531Z,40.80
2023-04-10T04:05:51.019Z,41.40
2023-04-10T04:08:18.880Z,39.40
2023-04-10T04:10:46.862Z,42.60
2023-04-10T04:13:14.776Z,37.50
2023-04-10T04:15:43.110Z,39.20
2023-04-10T04:18:11.097Z,35.80
2023-04-10T04:20:39.025Z,38.20
2023-04-10T04:23:06.955Z,36.80
2023-04-10T04:25:34.755Z,35.80
2023-04-10T04:28:02.546Z,33.40
2023-04-10T04:30:30.477Z,34.60
2023-04-10T04:32:58.367Z,34.50
2023-04-10T04:35:26.314Z,32.60
2023-04-10T04:37:54.226Z,32.30
2023-04-10T04:40:22.059Z,34.10
2023-04-10T04:42:49.859Z,34.90
2023-04-10T04:45:17.806Z,34.60
2023-04-10T04:47:45.713Z,32.40
2023-04-10T04:50:13.728Z,31.50
2023-04-10T04:52:41.667Z,31.60
2023-04-10T04:55:10.246Z,28.30
2023-04-10T04:57:38.057Z,26.10
2023-04-10T05:00:07.150Z,26.60
2023-04-10T05:02:35.249Z,26.80
2023-04-10T05:05:03.299Z,25.80
2023-04-10T05:07:33.143Z,23.80
2023-04-10T05:10:01.501Z,23.50
2023-04-10T05:12:29.364Z,23.80
2023-04-10T05:14:57.282Z,25.70
2023-04-10T05:17:25.742Z,24.40
2023-04-10T05:19:53.587Z,22.80
2023-04-10T05:22:21.625Z,23.60
2023-04-10T05:24:49.686Z,23.30
2023-04-10T05:27:18.425Z,23.30
2023-04-10T05:29:46.827Z,23.70
2023-04-10T05:32:15.102Z,24.10
2023-04-10T05:34:42.957Z,23.40
2023-04-10T05:37:13.143Z,23.10
2023-04-10T05:39:41.367Z,22.80
2023-04-10T05:42:09.609Z,23.70
2023-04-10T05:44:37.771Z,23.70
2023-04-10T05:47:06.022Z,23.00
2023-04-10T05:49:34.078Z,23.90
2023-04-10T05:52:02.221Z,23.60
2023-04-10T05:54:30.154Z,23.50
2023-04-10T05:56:58.273Z,25.10
2023-04-10T05:59:26.534Z,24.00
2023-04-10T06:01:54.728Z,23.30
2023-04-10T06:04:23.588Z,25.80
2023-04-10T06:06:52.328Z,21.60
2023-04-10T06:09:20.544Z,23.20
2023-04-10T06:11:48.447Z,24.20
2023-04-10T06:14:18.082Z,24.90
2023-04-10T06:16:46.086Z,25.00
2023-04-10T06:19:14.085Z,23.70
2023-04-10T06:21:41.917Z,25.70
2023-04-10T06:24:11.673Z,25.80
2023-04-10T06:26:40.760Z,27.30
2023-04-10T06:29:08.730Z,28.10
2023-04-10T06:31:36.700Z,37.40
2023-04-10T06:34:04.628Z,29.00
2023-04-10T06:36:33.104Z,28.30
2023-04-10T06:39:02.998Z,28.00
2023-04-10T06:41:31.221Z,31.60
2023-04-10T06:46:28.139Z,29.80
2023-04-10T06:48:56.325Z,33.00
2023-04-10T06:51:24.400Z,32.70
2023-04-10T06:53:52.188Z,35.10
2023-04-10T06:56:20.023Z,34.80
2023-04-10T06:58:47.937Z,37.80
2023-04-10T07:01:17.787Z,32.80
2023-04-10T07:03:45.909Z,35.40
2023-04-10T07:06:13.782Z,36.50
2023-04-10T07:08:41.768Z,33.40
2023-04-10T07:11:09.615Z,31.30
2023-04-10T07:13:38.982Z,29.30
2023-04-10T07:16:11.140Z,33.10
2023-04-10T07:18:41.164Z,33.20
2023-04-10T07:21:14.418Z,34.50
2023-04-10T07:23:42.348Z,32.70
2023-04-10T07:26:10.189Z,33.40
2023-04-10T07:28:38.324Z,28.90
2023-04-10T07:31:07.945Z,29.50
2023-04-10T07:33:36.561Z,27.10
2023-04-10T07:36:06.161Z,25.90
2023-04-10T07:38:34.105Z,25.40
2023-04-10T07:41:01.966Z,26.10
2023-04-10T07:43:29.870Z,27.10
2023-04-10T07:45:58.075Z,29.50
2023-04-10T07:48:26.261Z,29.40
2023-04-10T07:50:54.206Z,29.20
2023-04-10T07:53:22.105Z,30.80
2023-04-10T07:55:50.260Z,30.40
2023-04-10T07:58:18.094Z,33.80
2023-04-10T08:00:45.969Z,32.50
2023-04-10T08:03:15.934Z,32.10
2023-04-10T08:05:43.939Z,29.50
2023-04-10T08:08:12.050Z,32.80
2023-04-10T08:10:39.874Z,33.50
2023-04-10T08:13:07.838Z,32.30
2023-04-10T08:15:36.492Z,28.90
2023-04-10T08:18:04.362Z,30.30
2023-04-10T08:20:36.960Z,30.90
2023-04-10T08:23:19.288Z,28.60
2023-04-10T08:25:48.514Z,27.30
2023-04-10T08:28:16.533Z,27.00
2023-04-10T08:30:44.487Z,28.00
2023-04-10T08:33:13.336Z,27.50
2023-04-10T08:35:41.288Z,27.60
2023-04-10T08:38:14.213Z,28.50
2023-04-10T08:40:44.809Z,27.20
2023-04-10T08:43:13.850Z,26.80
2023-04-10T08:45:41.773Z,27.40
2023-04-10T08:48:10.743Z,29.40
2023-04-10T08:50:43.107Z,29.30
2023-04-10T08:53:15.914Z,30.60
2023-04-10T08:55:44.568Z,29.80
2023-04-10T08:58:13.858Z,31.70
2023-04-10T09:00:41.882Z,30.80
2023-04-10T09:03:15.016Z,32.20
2023-04-10T09:05:43.260Z,32.90
2023-04-10T09:08:12.289Z,35.30
2023-04-10T09:10:40.335Z,36.00
2023-04-10T09:13:08.176Z,36.80
2023-04-10T09:15:59.180Z,38.30
2023-04-10T09:18:43.456Z,35.40
2023-04-10T09:21:14.126Z,36.70
2023-04-10T09:23:44.632Z,37.00
2023-04-10T09:26:33.494Z,37.30
2023-04-10T09:29:05.757Z,35.60
2023-04-10T09:31:39.047Z,35.30
2023-04-10T09:34:07.690Z,34.80
2023-04-10T09:36:37.061Z,36.20
2023-04-10T09:39:05.975Z,31.60
2023-04-10T09:41:34.254Z,30.40
2023-04-10T09:44:11.442Z,29.30
2023-04-10T09:46:39.310Z,28.10
2023-04-10T09:49:07.770Z,30.10
2023-04-10T09:51:36.123Z,29.30
2023-04-10T09:54:04.281Z,30.80
2023-04-10T09:56:36.218Z,30.40
2023-04-10T09:59:04.846Z,31.50
2023-04-10T10:01:37.044Z,30.60
2023-04-10T10:04:05.378Z,32.30
2023-04-10T10:06:34.720Z,30.00
2023-04-10T10:09:04.806Z,30.30
2023-04-10T10:11:36.033Z,31.00
2023-04-10T10:14:19.019Z,32.40
2023-04-10T10:16:50.535Z,30.00
2023-04-10T10:19:31.745Z,32.30
2023-04-10T10:22:01.826Z,31.40
2023-04-10T10:24:31.798Z,32.60
2023-04-10T10:27:00.006Z,31.70
2023-04-10T10:29:32.393Z,31.90
2023-04-10T10:32:03.019Z,31.60
2023-04-10T10:34:31.972Z,30.90
2023-04-10T10:37:01.185Z,31.20
2023-04-10T10:39:48.964Z,32.80
2023-04-10T10:43:13.812Z,34.80
2023-04-10T10:46:13.594Z,34.20
2023-04-10T10:48:41.531Z,35.20
2023-04-10T10:51:09.382Z,34.90
2023-04-10T10:53:43.710Z,35.30
2023-04-10T10:56:23.316Z,33.80
2023-04-10T10:58:54.257Z,34.70
2023-04-10T11:01:22.495Z,33.40
2023-04-10T11:03:50.970Z,33.60
2023-04-10T11:06:21.082Z,33.60
2023-04-10T11:08:51.610Z,33.70
2023-04-10T11:11:24.396Z,31.40
2023-04-10T11:13:58.036Z,30.90
2023-04-10T11:16:35.904Z,27.90
2023-04-10T11:19:13.849Z,28.00
2023-04-10T11:22:02.409Z,31.50
2023-04-10T11:24:51.981Z,30.70
2023-04-10T11:27:46.917Z,33.70
2023-04-10T11:30:31.748Z,33.00
2023-04-10T11:33:01.325Z,31.20
2023-04-10T11:35:31.709Z,29.60
2023-04-10T11:38:15.788Z,31.70
2023-04-10T11:41:04.802Z,31.60
2023-04-10T11:43:33.878Z,29.90
2023-04-10T11:46:04.299Z,28.30
2023-04-10T11:48:32.506Z,30.40
2023-04-10T11:51:11.458Z,28.80
2023-04-10T11:53:41.124Z,28.20
2023-04-10T11:56:26.748Z,29.40
2023-04-10T11:58:55.294Z,29.40
2023-04-10T12:01:23.886Z,28.70
2023-04-10T12:03:52.118Z,29.90
2023-04-10T12:06:20.607Z,27.30
2023-04-10T12:08:51.080Z,28.50
2023-04-10T12:11:24.221Z,27.70
2023-04-10T12:13:53.877Z,26.60
2023-04-10T12:16:22.152Z,25.10
2023-04-10T12:18:50.588Z,25.80
2023-04-10T12:21:18.456Z,24.40
2023-04-10T12:23:46.233Z,19.90
2023-04-10T12:26:18.950Z,20.10
2023-04-10T12:28:53.554Z,20.80
2023-04-10T12:31:32.863Z,21.60
2023-04-10T12:34:02.558Z,19.40
2023-04-10T12:36:32.381Z,19.20
2023-04-10T12:39:04.733Z,18.80
2023-04-10T12:41:34.356Z,20.10
2023-04-10T12:44:13.510Z,19.30
2023-04-10T12:46:43.085Z,17.80
2023-04-10T12:49:16.159Z,15.90
2023-04-10T12:51:52.339Z,14.80
2023-04-10T12:54:33.317Z,16.40
2023-04-10T12:57:02.847Z,16.40
2023-04-10T12:59:31.474Z,16.60
2023-04-10T13:01:59.551Z,16.60
2023-04-10T13:04:29.849Z,16.30
2023-04-10T13:06:57.688Z,16.70
2023-04-10T13:09:25.531Z,15.90
2023-04-10T13:11:53.354Z,15.60
2023-04-10T13:14:21.104Z,15.60
2023-04-10T13:16:49.007Z,16.10
2023-04-10T13:19:16.861Z,16.20
2023-04-10T13:21:44.727Z,16.60
2023-04-10T13:24:14.730Z,14.70
2023-04-10T13:26:43.915Z,15.00
2023-04-10T13:29:12.128Z,14.20
2023-04-10T13:31:39.945Z,14.40
2023-04-10T13:34:07.801Z,14.60
2023-04-10T13:36:35.692Z,14.70
2023-04-10T13:39:03.752Z,14.50
2023-04-10T13:41:31.630Z,13.80
2023-04-10T13:43:59.443Z,13.70
2023-04-10T13:46:27.365Z,14.50
2023-04-10T13:48:55.659Z,13.70
2023-04-10T13:51:23.726Z,14.00
2023-04-10T13:53:51.553Z,14.10
2023-04-10T13:56:19.398Z,13.40
2023-04-10T13:58:47.222Z,11.40
2023-04-10T14:01:15.185Z,12.20
2023-04-10T14:03:43.075Z,11.70
2023-04-10T14:06:11.055Z,12.80
2023-04-10T14:08:38.885Z,12.50
2023-04-10T14:11:07.127Z,12.60
2023-04-10T14:13:35.089Z,13.20
2023-04-10T14:16:04.248Z,13.70
2023-04-10T14:18:32.151Z,13.20
2023-04-10T14:21:00.019Z,14.60
2023-04-10T14:23:27.959Z,13.70
2023-04-10T14:25:55.872Z,12.90
2023-04-10T14:28:23.638Z,13.70
2023-04-10T14:30:51.990Z,12.90
2023-04-10T14:33:20.292Z,13.40
2023-04-10T14:35:48.535Z,12.00
2023-04-10T14:38:16.515Z,12.00
2023-04-10T14:40:48.557Z,11.90
2023-04-10T14:43:16.913Z,14.20
2023-04-10T14:45:44.779Z,14.10
2023-04-10T14:48:13.137Z,13.80
2023-04-10T14:50:41.378Z,14.10
2023-04-10T14:53:10.028Z,13.50
2023-04-10T14:55:38.005Z,13.40
2023-04-10T14:58:07.104Z,13.00
2023-04-10T15:00:35.550Z,11.90
2023-04-10T15:03:05.473Z,13.80
2023-04-10T15:05:33.431Z,14.10
2023-04-10T15:08:01.297Z,14.80
2023-04-10T15:10:30.778Z,13.60
2023-04-10T15:12:58.644Z,12.80
2023-04-10T15:15:26.525Z,13.30
2023-04-10T15:17:54.430Z,14.20
2023-04-10T15:20:22.339Z,12.80
2023-04-10T15:22:50.140Z,12.10
2023-04-10T15:25:17.898Z,10.40
2023-04-10T15:27:45.723Z,10.90
2023-04-10T15:30:13.709Z,11.10
2023-04-10T15:32:41.490Z,9.90
2023-04-10T15:35:09.553Z,11.80
2023-04-10T15:37:37.479Z,12.70
2023-04-10T15:40:06.489Z,12.90
2023-04-10T15:42:34.853Z,12.10
2023-04-10T15:45:03.984Z,9.70
2023-04-10T15:47:31.945Z,9.70
2023-04-10T15:49:59.766Z,10.00
2023-04-10T15:52:29.432Z,10.30
2023-04-10T15:54:57.264Z,10.40
2023-04-10T15:57:25.194Z,10.10
2023-04-10T15:59:53.895Z,11.10
2023-04-10T16:02:21.820Z,11.80
2023-04-10T16:04:49.948Z,11.70
2023-04-10T16:07:17.923Z,12.20
2023-04-10T16:09:46.198Z,12.10
2023-04-10T16:12:14.134Z,12.10
2023-04-10T16:14:42.005Z,11.80
2023-04-10T16:17:09.769Z,12.90
2023-04-10T16:19:37.732Z,13.50
2023-04-10T16:22:05.917Z,13.60
2023-04-10T16:24:33.729Z,14.10
2023-04-10T16:27:02.227Z,13.40
2023-04-10T16:29:30.190Z,13.80
2023-04-10T16:31:57.964Z,13.30
2023-04-10T16:34:25.819Z,14.90
2023-04-10T16:36:53.671Z,15.10
2023-04-10T16:39:22.055Z,14.40
2023-04-10T16:41:49.932Z,14.50
2023-04-10T16:44:17.799Z,13.90
2023-04-10T16:46:45.689Z,13.90
2023-04-10T16:49:13.544Z,15.60
2023-04-10T16:51:41.462Z,15.50
2023-04-10T16:54:09.311Z,14.80
2023-04-10T16:56:37.235Z,14.10
2023-04-10T16:59:05.003Z,15.20
2023-04-10T17:01:35.187Z,15.10
2023-04-10T17:04:03.194Z,16.00
2023-04-10T17:06:31.333Z,16.70
2023-04-10T17:08:59.103Z,18.60
2023-04-10T17:11:27.074Z,17.70
2023-04-10T17:13:54.862Z,17.70
2023-04-10T17:16:23.002Z,17.80
2023-04-10T17:18:52.139Z,16.50
2023-04-10T17:21:20.096Z,15.70
2023-04-10T17:23:48.869Z,14.70
2023-04-10T17:26:17.186Z,15.10
2023-04-10T17:28:46.706Z,15.30
2023-04-10T17:31:15.610Z,14.40
2023-04-10T17:33:44.198Z,15.30
2023-04-10T17:36:12.845Z,16.40
2023-04-10T17:38:42.359Z,18.60
2023-04-10T17:41:14.035Z,18.10
2023-04-10T17:43:42.010Z,17.30
2023-04-10T17:46:16.873Z,18.80
2023-04-10T17:48:45.181Z,18.60
2023-04-10T17:51:13.022Z,19.70
2023-04-10T17:53:41.168Z,20.30
2023-04-10T17:56:19.162Z,29.40
2023-04-10T17:58:47.237Z,30.10
2023-04-10T18:01:29.612Z,29.60
2023-04-10T18:03:57.845Z,28.70
2023-04-10T18:06:26.472Z,30.60
2023-04-10T18:08:57.151Z,38.00
2023-04-10T18:11:25.655Z,43.70
2023-04-10T18:13:53.599Z,36.20
2023-04-10T18:16:21.608Z,34.40
2023-04-10T18:18:49.699Z,42.80
2023-04-10T18:21:17.617Z,72.10
2023-04-10T18:23:45.730Z,102.30
2023-04-10T18:26:13.690Z,153.20
2023-04-10T18:28:43.188Z,151.30
2023-04-10T18:31:14.853Z,124.50
2023-04-10T18:33:43.424Z,110.60
2023-04-10T18:36:14.094Z,102.00
2023-04-10T18:38:43.886Z,96.20
2023-04-10T18:41:11.934Z,88.40
2023-04-10T18:43:39.936Z,72.20
2023-04-10T18:46:08.675Z,73.20
2023-04-10T18:48:42.852Z,82.10
2023-04-10T18:51:13.777Z,74.20
2023-04-10T18:53:42.026Z,73.20
2023-04-10T18:56:09.854Z,72.00
2023-04-10T18:58:37.756Z,67.50
2023-04-10T19:01:06.290Z,63.70
2023-04-10T19:03:34.439Z,67.20
2023-04-10T19:06:04.922Z,81.70
2023-04-10T19:08:35.908Z,84.40
2023-04-10T19:11:07.821Z,73.10
2023-04-10T19:13:35.921Z,69.50
2023-04-10T19:16:04.892Z,66.00
2023-04-10T19:18:33.122Z,57.80
2023-04-10T19:21:01.128Z,60.50
2023-04-10T19:23:28.961Z,63.60
2023-04-10T19:25:58.733Z,68.00
2023-04-10T19:28:29.473Z,75.50
2023-04-10T19:30:57.689Z,80.80
2023-04-10T19:33:25.769Z,89.40
2023-04-10T19:35:54.042Z,90.60
2023-04-10T19:38:25.127Z,92.60
2023-04-10T19:40:53.712Z,93.10
2023-04-10T19:43:21.885Z,110.20
2023-04-10T19:45:50.351Z,111.70
2023-04-10T19:48:18.540Z,104.30
2023-04-10T19:50:46.686Z,115.20
2023-04-10T19:53:15.703Z,115.70
2023-04-10T19:55:45.752Z,126.00
2023-04-10T19:58:25.271Z,119.50
2023-04-10T20:01:05.124Z,109.90
2023-04-10T20:03:33.492Z,94.30
2023-04-10T20:06:03.296Z,83.80
2023-04-10T20:08:31.370Z,103.00
2023-04-10T20:10:59.813Z,124.80
2023-04-10T20:13:27.918Z,152.00
2023-04-10T20:15:55.932Z,168.00
2023-04-10T20:18:23.849Z,176.20
2023-04-10T20:20:51.823Z,166.70
2023-04-10T20:23:19.721Z,136.30
2023-04-10T20:25:47.612Z,131.60
2023-04-10T20:28:17.018Z,117.00
2023-04-10T20:30:44.973Z,99.30
2023-04-10T20:33:12.833Z,103.80
2023-04-10T20:35:40.954Z,107.60
2023-04-10T20:38:08.977Z,124.50
2023-04-10T20:40:37.090Z,124.20
2023-04-10T20:43:11.033Z,113.90
2023-04-10T20:45:40.167Z,114.10
2023-04-10T20:48:09.164Z,124.70
2023-04-10T20:50:39.969Z,129.40
2023-04-10T20:53:08.028Z,131.00
2023-04-10T20:55:39.708Z,133.30
2023-04-10T20:58:07.726Z,108.30
2023-04-10T21:00:35.748Z,114.20
2023-04-10T21:03:03.819Z,151.20
2023-04-10T21:05:31.846Z,183.70
2023-04-10T21:07:59.730Z,165.90
2023-04-10T21:10:28.953Z,142.50
2023-04-10T21:12:57.063Z,137.30
2023-04-10T21:15:24.957Z,119.80
2023-04-10T21:17:53.057Z,126.90
2023-04-10T21:20:20.865Z,108.80
2023-04-10T21:22:48.710Z,94.30
2023-04-10T21:25:16.773Z,90.00
2023-04-10T21:27:44.555Z,93.20
2023-04-10T21:30:12.738Z,93.90
2023-04-10T21:32:40.723Z,89.60
2023-04-10T21:35:09.078Z,90.80
2023-04-10T21:37:37.098Z,82.70
2023-04-10T21:40:09.371Z,76.50
2023-04-10T21:42:38.329Z,71.80
2023-04-10T21:45:07.246Z,75.10
2023-04-10T21:47:35.035Z,77.30
2023-04-10T21:50:02.786Z,73.80
2023-04-10T21:52:30.713Z,61.90
2023-04-10T21:54:58.830Z,53.80
2023-04-10T21:57:27.004Z,42.20
2023-04-10T21:59:54.936Z,41.10
2023-04-10T22:02:22.941Z,46.80
2023-04-10T22:04:54.687Z,51.10
2023-04-10T22:07:23.032Z,48.90
2023-04-10T22:09:51.092Z,41.20
2023-04-10T22:12:18.999Z,37.70
2023-04-10T22:14:49.256Z,36.50
2023-04-10T22:17:17.223Z,31.30
2023-04-10T22:19:45.085Z,28.60
2023-04-10T22:22:12.996Z,30.30
2023-04-10T22:24:41.007Z,27.10
2023-04-10T22:27:09.001Z,28.30
2023-04-10T22:29:37.120Z,34.20
2023-04-10T22:32:05.508Z,34.90
2023-04-10T22:34:33.380Z,30.00
2023-04-10T22:37:01.235Z,28.00
2023-04-10T22:39:29.014Z,27.40
2023-04-10T22:41:56.883Z,29.30
2023-04-10T22:44:25.042Z,26.90
2023-04-10T22:46:53.291Z,29.30
2023-04-10T22:49:21.192Z,28.20
2023-04-10T22:51:51.510Z,26.80
2023-04-10T22:54:19.326Z,26.50
2023-04-10T22:56:48.911Z,28.10
2023-04-10T22:59:21.313Z,29.60
2023-04-10T23:01:49.323Z,31.70
2023-04-10T23:04:17.274Z,32.20
2023-04-10T23:06:45.313Z,31.90
2023-04-10T23:09:13.254Z,31.70
2023-04-10T23:11:41.166Z,32.60
2023-04-10T23:14:09.059Z,32.10
2023-04-10T23:16:37.031Z,33.50
2023-04-10T23:19:05.224Z,31.30
2023-04-10T23:21:33.193Z,30.60
2023-04-10T23:24:01.107Z,29.50
2023-04-10T23:26:32.330Z,30.50
2023-04-10T23:29:01.215Z,33.50
2023-04-10T23:31:29.118Z,34.30
2023-04-10T23:33:57.033Z,33.90
2023-04-10T23:36:24.859Z,36.50
2023-04-10T23:38:53.526Z,38.10
2023-04-10T23:41:21.655Z,42.60
2023-04-10T23:43:49.566Z,46.40
2023-04-10T23:46:17.417Z,57.70
2023-04-10T23:48:45.327Z,46.50
2023-04-10T23:51:13.223Z,54.60
2023-04-10T23:53:41.044Z,55.70
2023-04-10T23:56:09.231Z,50.70
2023-04-10T23:58:36.953Z,51.60
